Time,TemperatureF,DewpointF,PressureIn,WindDirection,WindDirectionDegrees,WindSpeedMPH,WindSpeedGustMPH,Humidity,HourlyPrecipIn,Conditions,Clouds,dailyrainin,SoftwareType,DateUTC
2013-03-22 07:02:00,32.0,30.0,30.26,SSW,201,0.0,0.0,91,0.00,,,0.04,,2013-03-22 14:02:00,
2013-03-22 07:12:00,32.0,30.0,30.26,SSW,201,0.0,0.0,91,0.00,,,0.04,,2013-03-22 14:12:00,
2013-03-22 07:22:00,32.0,30.0,30.26,SSW,200,0.0,0.0,92,0.00,,,0.04,,2013-03-22 14:22:00,
2013-03-22 07:32:00,32.0,30.0,30.26,SSW,201,0.0,0.0,92,0.00,,,0.04,,2013-03-22 14:32:00,
2013-03-22 07:42:00,32.0,30.0,30.26,SSW,201,0.0,0.0,92,0.00,,,0.04,,2013-03-22 14:42:00,
2013-03-22 07:51:00,32.0,30.0,30.26,SSW,200,0.0,0.0,92,0.00,,,0.04,,2013-03-22 14:51:00,
2013-03-22 08:02:00,32.0,30.0,30.26,SSW,201,0.0,0.0,92,0.00,,,0.04,,2013-03-22 15:02:00,
2013-03-22 08:11:00,32.0,30.0,30.26,SSW,201,0.0,0.0,92,0.00,,,0.04,,2013-03-22 15:11:00,
2013-03-22 08:21:00,33.0,31.0,30.26,SSW,200,0.0,0.0,92,0.00,,,0.04,,2013-03-22 15:21:00,
2013-03-22 08:32:00,34.0,32.0,30.26,SSW,201,0.0,0.0,93,0.00,,,0.04,,2013-03-22 15:32:00,
2013-03-22 08:42:00,34.0,32.0,30.26,SSW,201,0.0,0.0,93,0.00,,,0.04,,2013-03-22 15:42:00,
2013-03-22 08:52:00,34.0,32.0,30.26,SSW,200,0.0,0.0,93,0.00,,,0.04,,2013-03-22 15:52:00,
2013-03-22 09:02:00,35.0,33.0,30.26,SSW,200,0.0,0.0,93,0.00,,,0.04,,2013-03-22 16:02:00,
2013-03-22 09:13:00,36.0,34.0,30.26,South,170,0.0,0.0,93,0.00,,,0.04,,2013-03-22 16:13:00,
2013-03-22 09:22:00,36.0,34.0,30.26,South,170,0.0,0.0,93,0.00,,,0.04,,2013-03-22 16:22:00,
2013-03-22 09:32:00,36.0,34.0,30.27,SSW,205,0.0,0.0,92,0.00,,,0.04,,2013-03-22 16:32:00,
2013-03-22 09:42:00,36.0,34.0,30.27,SSW,205,0.0,0.0,92,0.00,,,0.04,,2013-03-22 16:42:00,
2013-03-22 09:52:00,37.0,35.0,30.27,WSW,245,0.0,0.0,91,0.00,,,0.04,,2013-03-22 16:52:00,
2013-03-22 10:02:00,38.0,35.0,30.27,West,261,0.0,0.0,90,0.00,,,0.04,,2013-03-22 17:02:00,
2013-03-22 10:12:00,38.0,34.0,30.28,SSW,201,0.0,0.0,87,0.00,,,0.04,,2013-03-22 17:12:00,
2013-03-22 10:22:00,38.0,34.0,30.28,SSW,201,0.0,0.0,87,0.00,,,0.04,,2013-03-22 17:22:00,
2013-03-22 10:32:00,38.0,34.0,30.28,West,272,0.0,0.0,84,0.00,,,0.04,,2013-03-22 17:32:00,
2013-03-22 10:42:00,38.0,34.0,30.28,West,272,0.0,0.0,84,0.00,,,0.04,,2013-03-22 17:42:00,
2013-03-22 10:52:00,39.0,34.0,30.28,SSW,199,0.0,0.0,81,0.00,,,0.04,,2013-03-22 17:52:00,
2013-03-22 11:01:00,39.0,32.0,30.28,WSW,238,0.0,0.0,77,0.00,,,0.04,,2013-03-22 18:01:00,
2013-03-22 11:11:00,39.0,32.0,30.28,WSW,238,0.0,0.0,77,0.00,,,0.04,,2013-03-22 18:11:00,
2013-03-22 11:22:00,41.0,33.0,30.27,WSW,237,0.0,0.0,72,0.00,,,0.04,,2013-03-22 18:22:00,
2013-03-22 11:32:00,41.0,31.0,30.27,WSW,240,0.0,0.0,66,0.00,,,0.04,,2013-03-22 18:32:00,
2013-03-22 11:42:00,41.0,31.0,30.27,WSW,240,0.0,0.0,66,0.00,,,0.04,,2013-03-22 18:42:00,
2013-03-22 11:52:00,41.0,31.0,30.28,WNW,291,0.0,0.0,67,0.00,,,0.04,,2013-03-22 18:52:00,
2013-03-22 12:02:00,42.0,31.0,30.28,NNW,341,0.0,0.0,66,0.00,,,0.04,,2013-03-22 19:02:00,
2013-03-22 12:12:00,42.0,31.0,30.28,NNW,341,0.0,0.0,66,0.00,,,0.04,,2013-03-22 19:12:00,
2013-03-22 12:22:00,42.0,30.0,30.28,SW,232,0.0,0.0,63,0.00,,,0.04,,2013-03-22 19:22:00,
2013-03-22 12:32:00,41.0,32.0,30.28,West,265,0.0,0.0,69,0.00,,,0.04,,2013-03-22 19:32:00,
2013-03-22 12:52:00,42.0,31.0,30.28,WSW,249,0.0,0.0,66,0.00,,,0.04,,2013-03-22 19:52:00,
2013-03-22 13:01:00,42.0,31.0,30.27,SSW,212,0.0,0.0,64,0.00,,,0.04,,2013-03-22 20:01:00,
2013-03-22 13:12:00,42.0,31.0,30.27,SSW,212,0.0,0.0,64,0.00,,,0.04,,2013-03-22 20:12:00,
2013-03-22 13:22:00,43.0,31.0,30.27,SW,229,0.0,0.0,62,0.00,,,0.04,,2013-03-22 20:22:00,
2013-03-22 13:32:00,44.0,29.0,30.27,NW,304,0.0,0.0,56,0.00,,,0.04,,2013-03-22 20:32:00,
2013-03-22 13:42:00,44.0,29.0,30.27,NW,304,0.0,0.0,56,0.00,,,0.04,,2013-03-22 20:42:00,
2013-03-22 13:51:00,45.0,28.0,30.27,NNW,327,0.0,0.0,52,0.00,,,0.04,,2013-03-22 20:51:00,
2013-03-22 14:02:00,44.0,29.0,30.27,NNW,338,0.0,0.0,55,0.00,,,0.04,,2013-03-22 21:02:00,
2013-03-22 14:11:00,44.0,29.0,30.27,North,356,0.0,0.0,55,0.00,,,0.04,,2013-03-22 21:11:00,
2013-03-22 14:21:00,44.0,29.0,30.27,North,356,0.0,0.0,55,0.00,,,0.04,,2013-03-22 21:21:00,
2013-03-22 14:42:00,44.0,30.0,30.27,North,0,0.0,0.0,58,0.00,,,0.04,,2013-03-22 21:42:00,
2013-03-22 14:52:00,44.0,31.0,30.26,SW,235,0.0,0.0,59,0.00,,,0.04,,2013-03-22 21:52:00,
2013-03-22 15:02:00,45.0,31.0,30.26,SW,218,0.0,0.0,58,0.00,,,0.04,,2013-03-22 22:02:00,
2013-03-22 15:12:00,45.0,31.0,30.26,SW,218,0.0,0.0,58,0.00,,,0.04,,2013-03-22 22:12:00,
2013-03-22 15:22:00,45.0,30.0,30.26,WSW,248,0.0,0.0,56,0.00,,,0.04,,2013-03-22 22:22:00,
2013-03-22 15:32:00,45.0,29.0,30.26,WSW,257,0.0,0.0,54,0.00,,,0.04,,2013-03-22 22:32:00,
2013-03-22 15:42:00,45.0,29.0,30.26,WSW,257,0.0,0.0,54,0.00,,,0.04,,2013-03-22 22:42:00,
2013-03-22 15:52:00,44.0,31.0,30.25,SW,236,0.0,0.0,59,0.00,,,0.04,,2013-03-22 22:52:00,
2013-03-22 16:01:00,44.0,32.0,30.25,SW,228,0.0,0.0,63,0.00,,,0.04,,2013-03-22 23:01:00,
2013-03-22 16:12:00,44.0,32.0,30.25,SW,228,0.0,0.0,63,0.00,,,0.04,,2013-03-22 23:12:00,
2013-03-22 16:22:00,43.0,32.0,30.26,North,1,0.0,0.0,66,0.00,,,0.04,,2013-03-22 23:22:00,
2013-03-22 16:32:00,43.0,36.0,30.26,ENE,77,0.0,0.0,77,0.01,,,0.05,,2013-03-22 23:32:00,
2013-03-22 16:42:00,43.0,36.0,30.26,ENE,77,0.0,0.0,77,0.01,,,0.05,,2013-03-22 23:42:00,
2013-03-22 16:52:00,43.0,34.0,30.26,ENE,77,0.0,0.0,71,0.01,,,0.05,,2013-03-22 23:52:00,
2013-03-22 17:01:00,44.0,35.0,30.26,South,181,0.0,0.0,71,0.01,,,0.05,,2013-03-23 00:01:00,
2013-03-22 17:12:00,44.0,35.0,30.26,South,181,0.0,0.0,71,0.01,,,0.05,,2013-03-23 00:12:00,
2013-03-22 17:22:00,44.0,35.0,30.26,SE,129,0.0,0.0,70,0.01,,,0.05,,2013-03-23 00:22:00,
2013-03-22 17:32:00,43.0,34.0,30.26,SSW,196,0.0,0.0,69,0.00,,,0.05,,2013-03-23 00:32:00,
2013-03-22 17:42:00,43.0,34.0,30.26,SSW,196,0.0,0.0,69,0.00,,,0.05,,2013-03-23 00:42:00,
2013-03-22 17:51:00,43.0,34.0,30.27,North,356,0.0,0.0,70,0.02,,,0.07,,2013-03-23 00:51:00,
2013-03-22 18:02:00,42.0,35.0,30.26,SSE,161,0.0,0.0,75,0.04,,,0.09,,2013-03-23 01:02:00,
2013-03-22 18:11:00,42.0,35.0,30.26,SSE,161,0.0,0.0,75,0.04,,,0.09,,2013-03-23 01:11:00,
2013-03-22 18:21:00,41.0,35.0,30.26,SE,143,0.0,0.0,79,0.04,,,0.09,,2013-03-23 01:21:00,
2013-03-22 18:31:00,41.0,36.0,30.26,SSE,162,0.0,0.0,81,0.04,,,0.09,,2013-03-23 01:31:00,
2013-03-22 18:42:00,41.0,36.0,30.26,SSE,162,0.0,0.0,81,0.04,,,0.09,,2013-03-23 01:42:00,
2013-03-22 18:52:00,42.0,37.0,30.26,WSW,245,0.0,0.0,81,0.02,,,0.09,,2013-03-23 01:52:00,
2013-03-22 19:02:00,42.0,36.0,30.26,SW,214,0.0,0.0,80,0.00,,,0.09,,2013-03-23 02:02:00,
2013-03-22 19:12:00,42.0,36.0,30.26,SW,214,0.0,0.0,80,0.00,,,0.09,,2013-03-23 02:12:00,
2013-03-22 19:22:00,42.0,36.0,30.26,SW,214,0.0,0.0,80,0.00,,,0.09,,2013-03-23 02:22:00,
2013-03-22 19:31:00,42.0,37.0,30.26,SW,214,0.0,0.0,81,0.00,,,0.09,,2013-03-23 02:31:00,
2013-03-22 19:42:00,42.0,37.0,30.26,SW,214,0.0,0.0,81,0.00,,,0.09,,2013-03-23 02:42:00,
2013-03-22 19:51:00,42.0,36.0,30.26,SW,214,0.0,0.0,80,0.01,,,0.10,,2013-03-23 02:51:00,
2013-03-22 20:02:00,41.0,36.0,30.26,SW,214,0.0,0.0,82,0.01,,,0.10,,2013-03-23 03:02:00,
2013-03-22 20:11:00,41.0,36.0,30.26,SW,214,0.0,0.0,82,0.01,,,0.10,,2013-03-23 03:11:00,
2013-03-22 20:22:00,40.0,36.0,30.27,SW,214,0.0,0.0,84,0.01,,,0.10,,2013-03-23 03:22:00,
2013-03-22 20:32:00,39.0,35.0,30.27,SW,214,0.0,0.0,86,0.00,,,0.10,,2013-03-23 03:32:00,
2013-03-22 20:42:00,39.0,35.0,30.27,SW,214,0.0,0.0,86,0.00,,,0.10,,2013-03-23 03:42:00,
2013-03-22 20:53:00,39.0,35.0,30.27,SW,214,0.0,0.0,86,0.00,,,0.10,,2013-03-23 03:53:00,
2013-03-22 21:02:00,38.0,34.0,30.27,SW,214,0.0,0.0,87,0.00,,,0.10,,2013-03-23 04:02:00,
2013-03-22 21:12:00,38.0,34.0,30.27,SW,214,0.0,0.0,87,0.00,,,0.10,,2013-03-23 04:12:00,
2013-03-22 21:22:00,38.0,34.0,30.28,SW,214,0.0,0.0,87,0.00,,,0.10,,2013-03-23 04:22:00,
2013-03-22 21:32:00,38.0,35.0,30.29,SW,214,0.0,0.0,88,0.00,,,0.10,,2013-03-23 04:32:00,
2013-03-22 21:42:00,38.0,35.0,30.29,SW,214,0.0,0.0,88,0.00,,,0.10,,2013-03-23 04:42:00,
2013-03-22 21:52:00,37.0,34.0,30.29,SW,214,0.0,0.0,88,0.00,,,0.10,,2013-03-23 04:52:00,
2013-03-22 22:02:00,37.0,34.0,30.29,SW,214,0.0,0.0,89,0.00,,,0.10,,2013-03-23 05:02:00,
2013-03-22 22:11:00,37.0,34.0,30.29,SW,214,0.0,0.0,89,0.00,,,0.10,,2013-03-23 05:11:00,
2013-03-22 22:21:00,37.0,34.0,30.29,SW,214,0.0,0.0,89,0.00,,,0.10,,2013-03-23 05:21:00,
2013-03-22 22:32:00,37.0,34.0,30.29,SW,214,0.0,0.0,90,0.00,,,0.10,,2013-03-23 05:32:00,
2013-03-22 22:42:00,37.0,34.0,30.29,SW,214,0.0,0.0,90,0.00,,,0.10,,2013-03-23 05:42:00,
2013-03-22 22:52:00,37.0,34.0,30.29,SW,214,0.0,0.0,90,0.00,,,0.10,,2013-03-23 05:52:00,
2013-03-22 23:02:00,37.0,34.0,30.29,SW,214,0.0,0.0,90,0.00,,,0.10,,2013-03-23 06:02:00,
2013-03-22 23:12:00,37.0,34.0,30.29,SW,214,0.0,0.0,90,0.00,,,0.10,,2013-03-23 06:12:00,
2013-03-22 23:22:00,37.0,34.0,30.31,NE,48,0.0,0.0,90,0.00,,,0.10,,2013-03-23 06:22:00,
2013-03-22 23:31:00,36.0,33.0,30.31,East,94,0.0,0.0,89,0.00,,,0.10,,2013-03-23 06:31:00,
2013-03-22 23:42:00,36.0,33.0,30.31,East,94,0.0,0.0,89,0.00,,,0.10,,2013-03-23 06:42:00,
2013-03-22 23:52:00,36.0,33.0,30.31,South,183,0.0,0.0,89,0.01,,,0.11,,2013-03-23 06:52:00,